Terminal Aerodrome Forecast
Issued by NWS Quad Cities IA IL

Home | Current Version | Previous Version | Text Only | Print | Product List | Glossary On
Versions: 1 2 3 4 5 6 7 8 9 10 11 12 13 14 15 16 17 18 19 20
000
FTUS43 KDVN 231137
TAFDBQ
TAF
KDBQ 231137Z 2312/2412 17007KT P6SM BKN250
     FM231600 17012G19KT P6SM SCT040 BKN250
     FM240200 15007KT P6SM VCSH BKN050 OVC120 PROB30 2402/2406 5SM
      -SHRA BKN035
     FM240600 17012KT 4SM SHRA BR VCTS BKN020CB=

USA.gov is the U.S. government's official web portal to all federal, state and local government web resources and services.